Sluisgracht — PFBE — position and weather

sailwx.info

Track history (hours):
 
Tides and Currents Weather Stations Pressure Air Temp Water Temp Dewpoint Dewpoint Depression Visibility Wind Speed Wind Dir Waves Ship Positions

Sluisgracht

Last reported at 2019-Mar-22 21:08 UTC. Time now 2019-Mar-23 04:21 UTC.
Position N 27°05' W 079°55'.

Length 173 m; beam 26 m.

Type: Cargo ship. MMSI: 244903000.

Date/timePositionNaut miles runAvg speedWind from/ knotsBaromVisibWave heightAir tempDewpointWater temp
2019-Mar-22 21:08N 27°05' W 079°55'214.8
2019-Mar-22 21:00N 27°03' W 079°55'815.2
2019-Mar-22 20:30N 26°56' W 079°56'815.0
2019-Mar-22 20:00N 26°48' W 079°58'5 9.4
2019-Mar-22 19:29N 26°46' W 080°03'1 0.9
2019-Mar-22 18:52N 26°46' W 080°03'0 0.0
2019-Mar-22 18:28N 26°46' W 080°03'0 0.0
2019-Mar-22 17:46N 26°46' W 080°03'0 0.0
2019-Mar-22 16:10N 26°46' W 080°03'0 0.0
2019-Mar-22 15:34N 26°46' W 080°03'0 0.0
2019-Mar-22 14:04N 26°46' W 080°03'0 0.0
2019-Mar-22 13:52N 26°46' W 080°03'0 0.0
2019-Mar-22 13:16N 26°46' W 080°03'0 0.0
2019-Mar-22 12:52N 26°46' W 080°03'0 0.0
2019-Mar-22 12:28N 26°46' W 080°03'0 0.0
2019-Mar-22 11:58N 26°46' W 080°03'0 0.0
2019-Mar-22 11:28N 26°46' W 080°03'0 0.0
2019-Mar-22 10:58N 26°46' W 080°03'0 0.0
2019-Mar-22 10:28N 26°46' W 080°03'0 0.0
2019-Mar-22 09:58N 26°46' W 080°03'0 0.0
2019-Mar-22 09:22N 26°46' W 080°03'0 0.0
2019-Mar-22 08:52N 26°46' W 080°03'0 0.0
2019-Mar-22 06:58N 26°46' W 080°03'0 0.0
2019-Mar-22 06:28N 26°46' W 080°03'0 0.0
2019-Mar-22 05:52N 26°46' W 080°03'0 0.0
2019-Mar-22 04:52N 26°46' W 080°03'0 0.0
2019-Mar-22 04:28N 26°46' W 080°03'0 0.0
2019-Mar-22 01:51N 26°46' W 080°03'0 0.0
2019-Mar-22 00:57N 26°46' W 080°03'0 0.0
2019-Mar-21 23:39N 26°46' W 080°03'0 0.0
2019-Mar-21 14:58N 26°46' W 080°03'1 1.2
2019-Mar-21 14:30N 26°46' W 080°02'3 5.6
2019-Mar-21 14:01N 26°46' W 079°59'1 2.6
2019-Mar-21 13:30N 26°47' W 079°58'3 5.4
2019-Mar-21 13:00N 26°50' W 079°58'3 5.3
2019-Mar-21 12:31N 26°52' W 079°56'4 7.4
2019-Mar-21 12:01N 26°55' W 079°55'510.3
2019-Mar-21 11:31N 27°00' W 079°52'510.4
2019-Mar-21 11:00N 27°05' W 079°50'  
2019-Mar-19 05:57N 37°49' W 076°11'814.9
2019-Mar-19 05:23N 37°57' W 076°12'715.2
2019-Mar-19 04:55N 38°04' W 076°13'615.1
2019-Mar-19 04:30N 38°10' W 076°14'915.0
2019-Mar-19 03:54N 38°19' W 076°18'3615.0
2019-Mar-19 01:29N 38°55' W 076°24'815.2
2019-Mar-19 00:59N 39°02' W 076°23'713.9
2019-Mar-19 00:30N 39°09' W 076°25'611.6
2019-Mar-19 00:00N 39°12' W 076°31'5 9.3
2019-Mar-18 23:30N 39°15' W 076°35'1 1.0
2019-Mar-18 22:59N 39°16' W 076°36'0 0.0
2019-Mar-18 22:29N 39°16' W 076°36'0 0.0
2019-Mar-18 21:59N 39°16' W 076°36'0 0.0
2019-Mar-18 21:29N 39°16' W 076°36'0 0.0
2019-Mar-18 20:59N 39°16' W 076°36'0 0.0
2019-Mar-18 20:28N 39°16' W 076°36'0 0.0
2019-Mar-18 19:58N 39°16' W 076°36'0 0.0
2019-Mar-18 19:28N 39°16' W 076°36'0 0.0
2019-Mar-18 18:58N 39°16' W 076°36'0 0.0
2019-Mar-18 18:28N 39°16' W 076°36'0 0.0
2019-Mar-18 17:58N 39°16' W 076°36'0 0.0
2019-Mar-18 17:28N 39°16' W 076°36'0 0.0
2019-Mar-18 16:58N 39°16' W 076°36'0 0.0
2019-Mar-18 16:28N 39°16' W 076°36'0 0.0
2019-Mar-18 15:58N 39°16' W 076°36'0 0.0
2019-Mar-18 15:28N 39°16' W 076°36'0 0.0
2019-Mar-18 14:58N 39°16' W 076°36'0 0.0
2019-Mar-18 14:28N 39°16' W 076°36'0 0.0
2019-Mar-18 13:58N 39°16' W 076°36'0 0.0
2019-Mar-18 13:28N 39°16' W 076°36'0 0.0
2019-Mar-18 12:58N 39°16' W 076°36'0 0.0
2019-Mar-18 12:28N 39°16' W 076°36'0 0.0
2019-Mar-18 11:58N 39°16' W 076°36'0 0.0
2019-Mar-18 11:28N 39°16' W 076°36'0 0.0
2019-Mar-18 10:58N 39°16' W 076°36'0 0.0
2019-Mar-18 10:28N 39°16' W 076°36'0 0.0
2019-Mar-18 09:58N 39°16' W 076°36'0 0.0
2019-Mar-18 09:28N 39°16' W 076°36'0 0.0
2019-Mar-18 08:58N 39°16' W 076°36'0 0.0
2019-Mar-18 08:28N 39°16' W 076°36'0 0.0
2019-Mar-18 07:58N 39°16' W 076°36'0 0.0
2019-Mar-18 07:28N 39°16' W 076°36'0 0.0
2019-Mar-18 06:58N 39°16' W 076°36'0 0.0
2019-Mar-18 06:28N 39°16' W 076°36'0 0.0
2019-Mar-18 05:58N 39°16' W 076°36'0 0.0
2019-Mar-18 05:28N 39°16' W 076°36'0 0.0
2019-Mar-18 04:58N 39°16' W 076°36'0 0.0
2019-Mar-18 04:28N 39°16' W 076°36'0 0.0
2019-Mar-18 03:58N 39°16' W 076°36'0 0.0
2019-Mar-18 03:28N 39°16' W 076°36'0 0.0
2019-Mar-18 02:58N 39°16' W 076°36'0 0.0
2019-Mar-18 02:28N 39°16' W 076°36'0 0.0
2019-Mar-18 01:58N 39°16' W 076°36'0 0.0
2019-Mar-18 01:28N 39°16' W 076°36'0 0.0
2019-Mar-18 00:58N 39°16' W 076°36'0 0.0
2019-Mar-18 00:28N 39°16' W 076°36'0 0.0
2019-Mar-17 23:58N 39°16' W 076°36'0 0.0
2019-Mar-17 23:28N 39°16' W 076°36'0 0.0
2019-Mar-17 22:58N 39°16' W 076°36'0 0.0
2019-Mar-17 22:28N 39°16' W 076°36'0 0.0
2019-Mar-17 21:58N 39°16' W 076°36'0 0.0
2019-Mar-17 21:28N 39°16' W 076°36'0 0.0
2019-Mar-17 20:58N 39°16' W 076°36'0 0.0
2019-Mar-17 20:28N 39°16' W 076°36'0 0.0
2019-Mar-17 19:58N 39°16' W 076°36'0 0.0
2019-Mar-17 19:28N 39°16' W 076°36'0 0.0
2019-Mar-17 18:58N 39°16' W 076°36'0 0.0
2019-Mar-17 18:28N 39°16' W 076°36'0 0.0
2019-Mar-17 17:58N 39°16' W 076°36'0 0.0
2019-Mar-17 17:28N 39°16' W 076°36'0 0.0
2019-Mar-17 16:58N 39°16' W 076°36'0 0.0
2019-Mar-17 16:28N 39°16' W 076°36'0 0.0
2019-Mar-17 15:58N 39°16' W 076°36'0 0.0
2019-Mar-17 15:28N 39°16' W 076°36'0 0.0
2019-Mar-17 14:58N 39°16' W 076°36'0 0.0
2019-Mar-17 14:28N 39°16' W 076°36'0 0.0
2019-Mar-17 13:58N 39°16' W 076°36'0 0.0
2019-Mar-17 13:28N 39°16' W 076°36'0 0.0
2019-Mar-17 12:58N 39°16' W 076°36'0 0.0
2019-Mar-17 12:28N 39°16' W 076°36'0 0.0
2019-Mar-17 11:58N 39°16' W 076°36'0 0.0
2019-Mar-17 11:28N 39°16' W 076°36'0 0.0
2019-Mar-17 10:58N 39°16' W 076°36'0 0.0
2019-Mar-17 10:31N 39°16' W 076°36'0 0.0
2019-Mar-17 10:01N 39°16' W 076°36'0 0.0
2019-Mar-17 09:30N 39°16' W 076°36'0 0.0
2019-Mar-17 09:00N 39°16' W 076°36'0 0.0
2019-Mar-17 08:30N 39°16' W 076°36'0 0.0
2019-Mar-17 08:00N 39°16' W 076°36'0 0.0
2019-Mar-17 07:30N 39°16' W 076°36'0 0.0
2019-Mar-17 07:00N 39°16' W 076°36'0 0.0
2019-Mar-17 06:30N 39°16' W 076°36'0 0.0
2019-Mar-17 06:00N 39°16' W 076°36'0 0.0
2019-Mar-17 05:30N 39°16' W 076°36'0 0.0
2019-Mar-17 05:00N 39°16' W 076°36'0 0.0
2019-Mar-17 04:30N 39°16' W 076°36'0 0.0
2019-Mar-17 04:00N 39°16' W 076°36'0 0.0
2019-Mar-17 03:30N 39°16' W 076°36'0 0.0
2019-Mar-17 03:00N 39°16' W 076°36'0 0.0
2019-Mar-17 02:30N 39°16' W 076°36'0 0.0
2019-Mar-17 02:00N 39°16' W 076°36'0 0.0
2019-Mar-17 01:30N 39°16' W 076°36'0 0.0
2019-Mar-17 01:00N 39°16' W 076°36'0 0.0
2019-Mar-17 00:30N 39°16' W 076°36'0 0.0
2019-Mar-17 00:00N 39°16' W 076°36'0 0.0
2019-Mar-16 23:30N 39°16' W 076°36'0 0.0
2019-Mar-16 23:00N 39°16' W 076°36'0 0.0
2019-Mar-16 22:30N 39°16' W 076°36'0 0.0
2019-Mar-16 22:00N 39°16' W 076°36'0 0.0
2019-Mar-16 21:30N 39°16' W 076°36'0 0.0
2019-Mar-16 21:00N 39°16' W 076°36'0 0.0
2019-Mar-16 20:30N 39°16' W 076°36'0 0.0
2019-Mar-16 20:00N 39°16' W 076°36'0 0.0
2019-Mar-16 19:30N 39°16' W 076°36'0 0.0
2019-Mar-16 19:00N 39°16' W 076°36'0 0.0
2019-Mar-16 18:30N 39°16' W 076°36'0 0.0
2019-Mar-16 18:00N 39°16' W 076°36'0 0.0
2019-Mar-16 17:30N 39°16' W 076°36'0 0.0
2019-Mar-16 17:00N 39°16' W 076°36'0 0.0
2019-Mar-16 16:30N 39°16' W 076°36'0 0.0
2019-Mar-16 16:00N 39°16' W 076°36'0 0.0
2019-Mar-16 15:30N 39°16' W 076°36'0 0.0
2019-Mar-16 15:00N 39°16' W 076°36'0 0.0
2019-Mar-16 14:30N 39°16' W 076°36'0 0.0
2019-Mar-16 14:00N 39°16' W 076°36'0 0.0
2019-Mar-16 13:30N 39°16' W 076°36'0 0.0
2019-Mar-16 13:00N 39°16' W 076°36'0 0.0
2019-Mar-16 12:30N 39°16' W 076°36'0 0.0
2019-Mar-16 12:00N 39°16' W 076°36'0 0.0
2019-Mar-16 11:30N 39°16' W 076°36'0 0.0
2019-Mar-16 11:00N 39°16' W 076°36'0 0.0
2019-Mar-16 10:30N 39°16' W 076°36'0 0.0
2019-Mar-16 10:00N 39°16' W 076°36'0 0.0
2019-Mar-16 09:30N 39°16' W 076°36'0 0.0
2019-Mar-16 09:00N 39°16' W 076°36'0 0.0
2019-Mar-16 08:30N 39°16' W 076°36'0 0.0
2019-Mar-16 08:00N 39°16' W 076°36'0 0.0
2019-Mar-16 07:30N 39°16' W 076°36'0 0.0
2019-Mar-16 07:00N 39°16' W 076°36'0 0.0
2019-Mar-16 06:30N 39°16' W 076°36'0 0.0
2019-Mar-16 06:00N 39°16' W 076°36'0 0.0
2019-Mar-16 05:30N 39°16' W 076°36'0 0.0
2019-Mar-16 05:00N 39°16' W 076°36'0 0.0
2019-Mar-16 04:30N 39°16' W 076°36'0 0.0
2019-Mar-16 04:00N 39°16' W 076°36'0 0.0
2019-Mar-16 03:30N 39°16' W 076°36'0 0.0
2019-Mar-16 03:00N 39°16' W 076°36'0 0.0
2019-Mar-16 02:30N 39°16' W 076°36'0 0.0
2019-Mar-16 02:00N 39°16' W 076°36'0 0.0
2019-Mar-16 01:30N 39°16' W 076°36'0 0.0
2019-Mar-16 01:00N 39°16' W 076°36'0 0.0
2019-Mar-16 00:31N 39°16' W 076°36'1 2.5
2019-Mar-16 00:01N 39°15' W 076°34'3 6.6
2019-Mar-15 23:30N 39°13' W 076°31'5 9.3
2019-Mar-15 23:01N 39°11' W 076°26'713.3
2019-Mar-15 22:30N 39°04' W 076°24'713.4
2019-Mar-15 22:01N 38°58' W 076°24'714.7
2019-Mar-15 21:30N 38°50' W 076°24'4014.3
2019-Mar-15 18:43N 38°11' W 076°14'415.1
2019-Mar-15 18:29N 38°07' W 076°13'915.0
2019-Mar-15 17:52N 37°58' W 076°12'614.5
2019-Mar-15 17:26N 37°52' W 076°09'105 7.0
2019-Mar-15 02:22N 38°01' W 073°57'  
Track history (hours):
 
Tides and Currents Weather Stations Pressure Air Temp Water Temp Dewpoint Dewpoint Depression Visibility Wind Speed Wind Dir Waves Ship Positions

Sluisgracht

Last reported at 2019-Mar-22 21:08 UTC. Time now 2019-Mar-23 04:21 UTC.
Position N 27°05' W 079°55'.

Length 173 m; beam 26 m.

Type: Cargo ship. MMSI: 244903000.

Date/timePositionNaut miles runAvg speedWind from/ knotsBaromVisibWave heightAir tempDewpointWater temp
2019-Mar-22 21:08N 27°05' W 079°55'214.8
2019-Mar-22 21:00N 27°03' W 079°55'815.2
2019-Mar-22 20:30N 26°56' W 079°56'815.0
2019-Mar-22 20:00N 26°48' W 079°58'5 9.4
2019-Mar-22 19:29N 26°46' W 080°03'1 0.9
2019-Mar-22 18:52N 26°46' W 080°03'0 0.0
2019-Mar-22 18:28N 26°46' W 080°03'0 0.0
2019-Mar-22 17:46N 26°46' W 080°03'0 0.0
2019-Mar-22 16:10N 26°46' W 080°03'0 0.0
2019-Mar-22 15:34N 26°46' W 080°03'0 0.0
2019-Mar-22 14:04N 26°46' W 080°03'0 0.0
2019-Mar-22 13:52N 26°46' W 080°03'0 0.0
2019-Mar-22 13:16N 26°46' W 080°03'0 0.0
2019-Mar-22 12:52N 26°46' W 080°03'0 0.0
2019-Mar-22 12:28N 26°46' W 080°03'0 0.0
2019-Mar-22 11:58N 26°46' W 080°03'0 0.0
2019-Mar-22 11:28N 26°46' W 080°03'0 0.0
2019-Mar-22 10:58N 26°46' W 080°03'0 0.0
2019-Mar-22 10:28N 26°46' W 080°03'0 0.0
2019-Mar-22 09:58N 26°46' W 080°03'0 0.0
2019-Mar-22 09:22N 26°46' W 080°03'0 0.0
2019-Mar-22 08:52N 26°46' W 080°03'0 0.0
2019-Mar-22 06:58N 26°46' W 080°03'0 0.0
2019-Mar-22 06:28N 26°46' W 080°03'0 0.0
2019-Mar-22 05:52N 26°46' W 080°03'0 0.0
2019-Mar-22 04:52N 26°46' W 080°03'0 0.0
2019-Mar-22 04:28N 26°46' W 080°03'0 0.0
2019-Mar-22 01:51N 26°46' W 080°03'0 0.0
2019-Mar-22 00:57N 26°46' W 080°03'0 0.0
2019-Mar-21 23:39N 26°46' W 080°03'0 0.0
2019-Mar-21 14:58N 26°46' W 080°03'1 1.2
2019-Mar-21 14:30N 26°46' W 080°02'3 5.6
2019-Mar-21 14:01N 26°46' W 079°59'1 2.6
2019-Mar-21 13:30N 26°47' W 079°58'3 5.4
2019-Mar-21 13:00N 26°50' W 079°58'3 5.3
2019-Mar-21 12:31N 26°52' W 079°56'4 7.4
2019-Mar-21 12:01N 26°55' W 079°55'510.3
2019-Mar-21 11:31N 27°00' W 079°52'510.4
2019-Mar-21 11:00N 27°05' W 079°50'  
2019-Mar-19 05:57N 37°49' W 076°11'814.9
2019-Mar-19 05:23N 37°57' W 076°12'715.2
2019-Mar-19 04:55N 38°04' W 076°13'615.1
2019-Mar-19 04:30N 38°10' W 076°14'915.0
2019-Mar-19 03:54N 38°19' W 076°18'3615.0
2019-Mar-19 01:29N 38°55' W 076°24'815.2
2019-Mar-19 00:59N 39°02' W 076°23'713.9
2019-Mar-19 00:30N 39°09' W 076°25'611.6
2019-Mar-19 00:00N 39°12' W 076°31'5 9.3
2019-Mar-18 23:30N 39°15' W 076°35'1 1.0
2019-Mar-18 22:59N 39°16' W 076°36'0 0.0
2019-Mar-18 22:29N 39°16' W 076°36'0 0.0
2019-Mar-18 21:59N 39°16' W 076°36'0 0.0
2019-Mar-18 21:29N 39°16' W 076°36'0 0.0
2019-Mar-18 20:59N 39°16' W 076°36'0 0.0
2019-Mar-18 20:28N 39°16' W 076°36'0 0.0
2019-Mar-18 19:58N 39°16' W 076°36'0 0.0
2019-Mar-18 19:28N 39°16' W 076°36'0 0.0
2019-Mar-18 18:58N 39°16' W 076°36'0 0.0
2019-Mar-18 18:28N 39°16' W 076°36'0 0.0
2019-Mar-18 17:58N 39°16' W 076°36'0 0.0
2019-Mar-18 17:28N 39°16' W 076°36'0 0.0
2019-Mar-18 16:58N 39°16' W 076°36'0 0.0
2019-Mar-18 16:28N 39°16' W 076°36'0 0.0
2019-Mar-18 15:58N 39°16' W 076°36'0 0.0
2019-Mar-18 15:28N 39°16' W 076°36'0 0.0
2019-Mar-18 14:58N 39°16' W 076°36'0 0.0
2019-Mar-18 14:28N 39°16' W 076°36'0 0.0
2019-Mar-18 13:58N 39°16' W 076°36'0 0.0
2019-Mar-18 13:28N 39°16' W 076°36'0 0.0
2019-Mar-18 12:58N 39°16' W 076°36'0 0.0
2019-Mar-18 12:28N 39°16' W 076°36'0 0.0
2019-Mar-18 11:58N 39°16' W 076°36'0 0.0
2019-Mar-18 11:28N 39°16' W 076°36'0 0.0
2019-Mar-18 10:58N 39°16' W 076°36'0 0.0
2019-Mar-18 10:28N 39°16' W 076°36'0 0.0
2019-Mar-18 09:58N 39°16' W 076°36'0 0.0
2019-Mar-18 09:28N 39°16' W 076°36'0 0.0
2019-Mar-18 08:58N 39°16' W 076°36'0 0.0
2019-Mar-18 08:28N 39°16' W 076°36'0 0.0
2019-Mar-18 07:58N 39°16' W 076°36'0 0.0
2019-Mar-18 07:28N 39°16' W 076°36'0 0.0
2019-Mar-18 06:58N 39°16' W 076°36'0 0.0
2019-Mar-18 06:28N 39°16' W 076°36'0 0.0
2019-Mar-18 05:58N 39°16' W 076°36'0 0.0
2019-Mar-18 05:28N 39°16' W 076°36'0 0.0
2019-Mar-18 04:58N 39°16' W 076°36'0 0.0
2019-Mar-18 04:28N 39°16' W 076°36'0 0.0
2019-Mar-18 03:58N 39°16' W 076°36'0 0.0
2019-Mar-18 03:28N 39°16' W 076°36'0 0.0
2019-Mar-18 02:58N 39°16' W 076°36'0 0.0
2019-Mar-18 02:28N 39°16' W 076°36'0 0.0
2019-Mar-18 01:58N 39°16' W 076°36'0 0.0
2019-Mar-18 01:28N 39°16' W 076°36'0 0.0
2019-Mar-18 00:58N 39°16' W 076°36'0 0.0
2019-Mar-18 00:28N 39°16' W 076°36'0 0.0
2019-Mar-17 23:58N 39°16' W 076°36'0 0.0
2019-Mar-17 23:28N 39°16' W 076°36'0 0.0
2019-Mar-17 22:58N 39°16' W 076°36'0 0.0
2019-Mar-17 22:28N 39°16' W 076°36'0 0.0
2019-Mar-17 21:58N 39°16' W 076°36'0 0.0
2019-Mar-17 21:28N 39°16' W 076°36'0 0.0
2019-Mar-17 20:58N 39°16' W 076°36'0 0.0
2019-Mar-17 20:28N 39°16' W 076°36'0 0.0
2019-Mar-17 19:58N 39°16' W 076°36'0 0.0
2019-Mar-17 19:28N 39°16' W 076°36'0 0.0
2019-Mar-17 18:58N 39°16' W 076°36'0 0.0
2019-Mar-17 18:28N 39°16' W 076°36'0 0.0
2019-Mar-17 17:58N 39°16' W 076°36'0 0.0
2019-Mar-17 17:28N 39°16' W 076°36'0 0.0
2019-Mar-17 16:58N 39°16' W 076°36'0 0.0
2019-Mar-17 16:28N 39°16' W 076°36'0 0.0
2019-Mar-17 15:58N 39°16' W 076°36'0 0.0
2019-Mar-17 15:28N 39°16' W 076°36'0 0.0
2019-Mar-17 14:58N 39°16' W 076°36'0 0.0
2019-Mar-17 14:28N 39°16' W 076°36'0 0.0
2019-Mar-17 13:58N 39°16' W 076°36'0 0.0
2019-Mar-17 13:28N 39°16' W 076°36'0 0.0
2019-Mar-17 12:58N 39°16' W 076°36'0 0.0
2019-Mar-17 12:28N 39°16' W 076°36'0 0.0
2019-Mar-17 11:58N 39°16' W 076°36'0 0.0
2019-Mar-17 11:28N 39°16' W 076°36'0 0.0
2019-Mar-17 10:58N 39°16' W 076°36'0 0.0
2019-Mar-17 10:31N 39°16' W 076°36'0 0.0
2019-Mar-17 10:01N 39°16' W 076°36'0 0.0
2019-Mar-17 09:30N 39°16' W 076°36'0 0.0
2019-Mar-17 09:00N 39°16' W 076°36'0 0.0
2019-Mar-17 08:30N 39°16' W 076°36'0 0.0
2019-Mar-17 08:00N 39°16' W 076°36'0 0.0
2019-Mar-17 07:30N 39°16' W 076°36'0 0.0
2019-Mar-17 07:00N 39°16' W 076°36'0 0.0
2019-Mar-17 06:30N 39°16' W 076°36'0 0.0
2019-Mar-17 06:00N 39°16' W 076°36'0 0.0
2019-Mar-17 05:30N 39°16' W 076°36'0 0.0
2019-Mar-17 05:00N 39°16' W 076°36'0 0.0
2019-Mar-17 04:30N 39°16' W 076°36'0 0.0
2019-Mar-17 04:00N 39°16' W 076°36'0 0.0
2019-Mar-17 03:30N 39°16' W 076°36'0 0.0
2019-Mar-17 03:00N 39°16' W 076°36'0 0.0
2019-Mar-17 02:30N 39°16' W 076°36'0 0.0
2019-Mar-17 02:00N 39°16' W 076°36'0 0.0
2019-Mar-17 01:30N 39°16' W 076°36'0 0.0
2019-Mar-17 01:00N 39°16' W 076°36'0 0.0
2019-Mar-17 00:30N 39°16' W 076°36'0 0.0
2019-Mar-17 00:00N 39°16' W 076°36'0 0.0
2019-Mar-16 23:30N 39°16' W 076°36'0 0.0
2019-Mar-16 23:00N 39°16' W 076°36'0 0.0
2019-Mar-16 22:30N 39°16' W 076°36'0 0.0
2019-Mar-16 22:00N 39°16' W 076°36'0 0.0
2019-Mar-16 21:30N 39°16' W 076°36'0 0.0
2019-Mar-16 21:00N 39°16' W 076°36'0 0.0
2019-Mar-16 20:30N 39°16' W 076°36'0 0.0
2019-Mar-16 20:00N 39°16' W 076°36'0 0.0
2019-Mar-16 19:30N 39°16' W 076°36'0 0.0
2019-Mar-16 19:00N 39°16' W 076°36'0 0.0
2019-Mar-16 18:30N 39°16' W 076°36'0 0.0
2019-Mar-16 18:00N 39°16' W 076°36'0 0.0
2019-Mar-16 17:30N 39°16' W 076°36'0 0.0
2019-Mar-16 17:00N 39°16' W 076°36'0 0.0
2019-Mar-16 16:30N 39°16' W 076°36'0 0.0
2019-Mar-16 16:00N 39°16' W 076°36'0 0.0
2019-Mar-16 15:30N 39°16' W 076°36'0 0.0
2019-Mar-16 15:00N 39°16' W 076°36'0 0.0
2019-Mar-16 14:30N 39°16' W 076°36'0 0.0
2019-Mar-16 14:00N 39°16' W 076°36'0 0.0
2019-Mar-16 13:30N 39°16' W 076°36'0 0.0
2019-Mar-16 13:00N 39°16' W 076°36'0 0.0
2019-Mar-16 12:30N 39°16' W 076°36'0 0.0
2019-Mar-16 12:00N 39°16' W 076°36'0 0.0
2019-Mar-16 11:30N 39°16' W 076°36'0 0.0
2019-Mar-16 11:00N 39°16' W 076°36'0 0.0
2019-Mar-16 10:30N 39°16' W 076°36'0 0.0
2019-Mar-16 10:00N 39°16' W 076°36'0 0.0
2019-Mar-16 09:30N 39°16' W 076°36'0 0.0
2019-Mar-16 09:00N 39°16' W 076°36'0 0.0
2019-Mar-16 08:30N 39°16' W 076°36'0 0.0
2019-Mar-16 08:00N 39°16' W 076°36'0 0.0
2019-Mar-16 07:30N 39°16' W 076°36'0 0.0
2019-Mar-16 07:00N 39°16' W 076°36'0 0.0
2019-Mar-16 06:30N 39°16' W 076°36'0 0.0
2019-Mar-16 06:00N 39°16' W 076°36'0 0.0
2019-Mar-16 05:30N 39°16' W 076°36'0 0.0
2019-Mar-16 05:00N 39°16' W 076°36'0 0.0
2019-Mar-16 04:30N 39°16' W 076°36'0 0.0
2019-Mar-16 04:00N 39°16' W 076°36'0 0.0
2019-Mar-16 03:30N 39°16' W 076°36'0 0.0
2019-Mar-16 03:00N 39°16' W 076°36'0 0.0
2019-Mar-16 02:30N 39°16' W 076°36'0 0.0
2019-Mar-16 02:00N 39°16' W 076°36'0 0.0
2019-Mar-16 01:30N 39°16' W 076°36'0 0.0
2019-Mar-16 01:00N 39°16' W 076°36'0 0.0
2019-Mar-16 00:31N 39°16' W 076°36'1 2.5
2019-Mar-16 00:01N 39°15' W 076°34'3 6.6
2019-Mar-15 23:30N 39°13' W 076°31'5 9.3
2019-Mar-15 23:01N 39°11' W 076°26'713.3
2019-Mar-15 22:30N 39°04' W 076°24'713.4
2019-Mar-15 22:01N 38°58' W 076°24'714.7
2019-Mar-15 21:30N 38°50' W 076°24'4014.3
2019-Mar-15 18:43N 38°11' W 076°14'415.1
2019-Mar-15 18:29N 38°07' W 076°13'915.0
2019-Mar-15 17:52N 37°58' W 076°12'614.5
2019-Mar-15 17:26N 37°52' W 076°09'105 7.0
2019-Mar-15 02:22N 38°01' W 073°57'  

Dump ship's entire track history